This is the latest recevied weather packets stored in our database for station/object BV5AB-33. If no packets are shown the sender has not sent any weather packets the latest 10 day(s).
| Time | Temp. | Humidity | Pressure | Rain* | Wind** | Luminosity | Snow |
|---|---|---|---|---|---|---|---|
| 1778177689 | 25° C | 73% | 981.6 hPa | 0 mm | - | - | - |
| 1778174089 | 25.56° C | 72% | 982 hPa | 0 mm | - | - | - |
| 1778173489 | 25.56° C | 72% | 982 hPa | 0 mm | - | - | - |
| 1778172290 | 25.56° C | 73% | 982.2 hPa | 0 mm | - | - | - |
| 1778169590 | 25.56° C | 73% | 982.4 hPa | 0 mm | - | - | - |
| 1778169289 | 25.56° C | 73% | 982.5 hPa | 0 mm | - | - | - |
| 1778168990 | 25.56° C | 73% | 982.6 hPa | 0 mm | - | - | - |
| 1778168690 | 25.56° C | 72% | 982.6 hPa | 0 mm | - | - | - |
| 1778168389 | 25.56° C | 72% | 982.5 hPa | 0 mm | - | - | - |
| 1778165090 | 26.11° C | 72% | 982.7 hPa | 0 mm | - | - | - |
| 1778163889 | 26.11° C | 72% | 982.7 hPa | 0 mm | - | - | - |
| 1778162389 | 26.11° C | 72% | 982.6 hPa | 0 mm | - | - | - |
| 1778159389 | 26.67° C | 71% | 982.5 hPa | 1.27 mm | - | - | - |
| 1778151890 | 27.78° C | 65% | 981.8 hPa | 0 mm | - | - | - |
| 1778147990 | 28.33° C | 62% | 981.2 hPa | 1.52 mm | - | - | - |
| 1778147390 | 28.89° C | 61% | 981.2 hPa | 1.52 mm | - | - | - |
| 1778146190 | 28.89° C | 61% | 981.2 hPa | 1.52 mm | - | - | - |
| 1778144990 | 29.44° C | 60% | 981.1 hPa | 0 mm | - | - | - |
| 1778142290 | 30.56° C | 58% | 980.8 hPa | 0 mm | - | - | - |
| 1778137190 | 31.11° C | 57% | 980.7 hPa | 0 mm | - | - | - |
| 1778136290 | 31.11° C | 57% | 980.7 hPa | 0 mm | - | - | - |
| 1778135690 | 31.11° C | 57% | 980.7 hPa | 0 mm | - | - | - |
| 1778135391 | 31.11° C | 58% | 980.6 hPa | 0 mm | - | - | - |
| 1778133590 | 31.67° C | 58% | 981 hPa | 0 mm | - | - | - |
| 1778129990 | 31.67° C | 53% | 981.5 hPa | 0 mm | - | - | - |
* Rain latest hour (hover to see other rain measurements)
** Current wind speed in m/s (hover to see current wind gust speed)